Time;durP1;ratioP1;P1;durP2;ratioP2;P2;SDS_P1;SDS_P2;PMS_P1;PMS_P2;Temp;Humidity;BMP_temperature;BMP_pressure;BME280_temperature;BME280_humidity;BME280_pressure;Samples;Min_cycle;Max_cycle;Signal;HPM_P1;HPM_P2
2024/05/06 00:00:41;;;;;;;3.03;2.10;;;;;;;12.86;91.13;97514.38;5451969;26;20009;-66
2024/05/06 00:03:28;;;;;;;5.55;2.40;;;;;;;12.93;91.08;97517.47;5453303;26;20006;-64
2024/05/06 00:06:13;;;;;;;3.55;2.10;;;;;;;12.99;90.29;97519.75;5450990;26;20014;-63
2024/05/06 00:08:59;;;;;;;2.80;2.05;;;;;;;12.92;90.32;97529.81;5426482;26;20068;-61
2024/05/06 00:11:45;;;;;;;3.30;2.13;;;;;;;12.66;91.43;97516.41;5451790;26;20450;-61
2024/05/06 00:14:31;;;;;;;3.85;2.50;;;;;;;12.66;91.91;97512.94;5426468;26;20457;-62
2024/05/06 00:17:17;;;;;;;3.03;2.10;;;;;;;12.60;93.18;97529.13;5426541;26;20075;-64
2024/05/06 00:20:02;;;;;;;4.45;2.20;;;;;;;12.57;93.78;97521.41;5451599;26;20010;-63
2024/05/06 00:22:50;;;;;;;2.95;2.20;;;;;;;12.54;93.72;97525.06;5453183;26;20087;-63
2024/05/06 00:25:36;;;;;;;5.43;2.20;;;;;;;12.34;93.46;97497.28;5451613;26;20067;-62
2024/05/06 00:28:21;;;;;;;4.22;2.42;;;;;;;12.53;94.00;97526.00;5451558;26;20028;-64
2024/05/06 00:31:08;;;;;;;3.90;2.17;;;;;;;12.77;92.54;97528.97;5451459;26;20329;-64
2024/05/06 00:33:55;;;;;;;3.03;2.08;;;;;;;12.74;91.92;97509.81;5451716;26;20063;-63
2024/05/06 00:36:40;;;;;;;3.75;2.47;;;;;;;12.71;91.80;97521.41;5451460;26;20010;-65
2024/05/06 00:39:27;;;;;;;2.97;2.13;;;;;;;12.83;91.26;97515.41;5451525;26;20067;-61
2024/05/06 00:42:12;;;;;;;2.83;2.20;;;;;;;12.69;91.23;97520.66;5451317;26;20006;-62
2024/05/06 00:44:59;;;;;;;2.97;1.98;;;;;;;12.73;91.60;97516.06;5451322;26;20449;-63
2024/05/06 00:47:45;;;;;;;5.45;2.20;;;;;;;12.66;91.13;97490.06;5452693;26;20463;-62
2024/05/06 00:50:33;;;;;;;2.95;1.98;;;;;;;12.87;90.08;97508.16;5425906;26;20471;-65
2024/05/06 00:53:19;;;;;;;3.30;2.00;;;;;;;12.37;93.12;97505.00;5426113;26;20006;-64
2024/05/06 00:56:05;;;;;;;3.33;2.15;;;;;;;12.27;93.49;97483.63;5451696;26;20005;-65
2024/05/06 00:58:52;;;;;;;2.65;2.10;;;;;;;12.56;93.20;97502.09;5425984;26;20005;-65
2024/05/06 01:01:39;;;;;;;2.58;1.95;;;;;;;12.66;92.52;97507.66;5425722;26;20072;-66
2024/05/06 01:04:25;;;;;;;6.75;2.10;;;;;;;11.88;93.09;97421.81;5433632;26;20066;-63
2024/05/06 01:07:11;;;;;;;4.05;2.20;;;;;;;12.26;94.45;97510.03;5461586;26;20017;-65
2024/05/06 01:09:57;;;;;;;5.05;2.05;;;;;;;12.41;94.44;97498.59;5462010;26;20029;-63
2024/05/06 01:12:43;;;;;;;4.40;2.03;;;;;;;12.50;93.77;97486.66;5461369;26;20004;-66
2024/05/06 01:15:32;;;;;;;2.80;1.90;;;;;;;12.63;92.54;97474.47;5488886;26;20083;-66
2024/05/06 01:18:18;;;;;;;3.45;2.00;;;;;;;12.79;91.86;97497.22;5464021;26;20449;-66
2024/05/06 01:21:06;;;;;;;2.28;1.90;;;;;;;12.73;91.44;97489.72;5469207;26;20004;-63
2024/05/06 01:23:53;;;;;;;2.35;1.90;;;;;;;12.48;92.48;97496.47;5469194;26;20074;-61
2024/05/06 01:26:39;;;;;;;2.35;1.70;;;;;;;12.45;93.27;97489.56;5443705;26;20009;-62
2024/05/06 01:29:25;;;;;;;2.72;1.85;;;;;;;12.39;93.07;97481.19;5443594;26;20005;-64
2024/05/06 01:32:12;;;;;;;3.90;2.05;;;;;;;12.31;94.70;97486.91;5468790;26;20009;-62
2024/05/06 01:34:58;;;;;;;4.10;1.90;;;;;;;12.39;94.32;97486.44;5469084;26;20009;-63
2024/05/06 01:37:44;;;;;;;4.72;2.40;;;;;;;12.47;92.96;97486.84;5443321;26;20005;-64
2024/05/06 01:40:30;;;;;;;11.35;3.25;;;;;;;12.46;92.64;97477.28;5468983;26;20005;-61
2024/05/06 01:43:16;;;;;;;9.52;4.20;;;;;;;12.40;93.72;97483.72;5468476;26;20047;-64
2024/05/06 01:46:02;;;;;;;8.27;3.40;;;;;;;12.59;93.07;97485.28;5443332;26;20496;-64
2024/05/06 01:48:48;;;;;;;7.13;3.00;;;;;;;12.47;93.14;97476.31;5468826;26;20005;-66
2024/05/06 01:51:34;;;;;;;5.50;3.10;;;;;;;12.64;93.69;97472.66;5468701;26;20452;-66
2024/05/06 01:54:23;;;;;;;6.68;3.03;;;;;;;12.55;92.87;97475.88;5443221;26;20358;-66
2024/05/06 01:57:09;;;;;;;5.72;2.70;;;;;;;12.59;91.26;97478.22;5468350;26;20009;-64
2024/05/06 01:59:55;;;;;;;6.05;2.70;;;;;;;12.55;92.54;97478.50;5443131;26;20071;-66
2024/05/06 02:02:44;;;;;;;5.38;2.60;;;;;;;12.72;90.65;97477.47;5443046;26;20034;-66
2024/05/06 02:05:31;;;;;;;7.60;2.78;;;;;;;12.57;91.34;97469.56;5457631;26;20365;-66
2024/05/06 02:08:18;;;;;;;5.13;2.70;;;;;;;12.62;91.66;97469.28;5432889;26;20034;-64
2024/05/06 02:11:04;;;;;;;5.25;2.60;;;;;;;12.72;92.47;97462.50;5458922;26;20068;-65
2024/05/06 02:13:50;;;;;;;4.80;2.70;;;;;;;12.59;92.47;97420.25;5432363;26;20010;-62
2024/05/06 02:16:36;;;;;;;3.60;2.15;;;;;;;12.87;92.77;97468.63;5457521;26;20392;-62
2024/05/06 02:19:22;;;;;;;5.97;2.20;;;;;;;12.97;92.62;97461.84;5457433;26;20027;-62
2024/05/06 02:22:09;;;;;;;5.22;2.17;;;;;;;13.00;91.67;97453.75;5457190;26;20006;-65
2024/05/06 02:24:55;;;;;;;4.32;2.22;;;;;;;13.15;91.09;97459.00;5458770;26;20010;-66
2024/05/06 02:27:41;;;;;;;3.88;2.22;;;;;;;13.20;89.86;97457.75;5458579;26;20006;-64
2024/05/06 02:30:27;;;;;;;4.35;2.35;;;;;;;13.41;89.11;97478.47;5428295;26;20013;-63
2024/05/06 02:33:12;;;;;;;3.60;2.10;;;;;;;13.06;90.81;97492.06;5427852;26;20009;-61
2024/05/06 02:35:59;;;;;;;4.72;2.38;;;;;;;12.49;94.35;97503.41;5454824;26;20010;-62
2024/05/06 02:38:45;;;;;;;10.82;2.40;;;;;;;12.66;94.02;97486.59;5428437;26;20009;-61
2024/05/06 02:41:31;;;;;;;4.00;2.40;;;;;;;12.70;94.64;97481.97;5453691;26;20033;-64
2024/05/06 02:44:17;;;;;;;4.35;2.67;;;;;;;12.49;97.33;97473.59;5453080;26;20017;-61
2024/05/06 02:47:03;;;;;;;3.75;2.33;;;;;;;12.30;99.52;97477.31;5453352;26;20006;-61
2024/05/06 02:49:50;;;;;;;4.05;2.38;;;;;;;12.58;98.48;97473.03;5454731;26;20002;-62
2024/05/06 02:52:36;;;;;;;3.97;2.30;;;;;;;12.07;100.00;97458.47;5427967;26;20031;-62
2024/05/06 02:55:22;;;;;;;2.60;1.92;;;;;;;12.37;100.00;97467.25;5453159;26;20005;-62
2024/05/06 02:58:08;;;;;;;2.70;2.08;;;;;;;12.30;100.00;97450.97;5454358;26;20009;-62
2024/05/06 03:00:54;;;;;;;3.83;2.40;;;;;;;12.40;100.00;97469.72;5452892;26;20009;-62
2024/05/06 03:03:44;;;;;;;3.83;2.28;;;;;;;12.52;100.00;97466.34;5427755;26;20006;-60
2024/05/06 03:06:31;;;;;;;5.05;2.40;;;;;;;12.62;100.00;97451.69;5454583;26;20009;-61
2024/05/06 03:09:17;;;;;;;4.22;2.45;;;;;;;12.71;100.00;97455.53;5454303;26;20010;-60
2024/05/06 03:12:04;;;;;;;4.00;2.20;;;;;;;12.73;100.00;97440.47;5427867;26;20006;-62
2024/05/06 03:14:50;;;;;;;4.88;2.30;;;;;;;12.75;100.00;97443.84;5452752;26;20067;-61
2024/05/06 03:17:36;;;;;;;2.92;2.08;;;;;;;12.79;99.85;97453.28;5452902;26;20035;-61
2024/05/06 03:20:22;;;;;;;3.53;2.38;;;;;;;12.68;99.61;97446.97;5427633;26;20330;-62
2024/05/06 03:23:08;;;;;;;2.88;2.10;;;;;;;12.77;99.37;97446.41;5452680;26;20010;-61
2024/05/06 03:25:53;;;;;;;2.95;2.10;;;;;;;12.70;99.72;97443.28;5427472;26;20006;-62
2024/05/06 03:28:41;;;;;;;3.15;1.90;;;;;;;12.81;99.25;97440.84;5402826;26;20006;-63
2024/05/06 03:31:27;;;;;;;3.55;2.20;;;;;;;12.59;98.94;97400.97;5427561;26;20006;-64
2024/05/06 03:34:13;;;;;;;4.35;2.28;;;;;;;12.64;98.68;97415.53;5452362;26;20470;-61
2024/05/06 03:36:59;;;;;;;5.68;1.90;;;;;;;12.90;98.71;97441.22;5427184;26;20077;-61
2024/05/06 03:39:45;;;;;;;3.28;1.92;;;;;;;12.76;97.27;97405.19;5452429;26;20345;-61
2024/05/06 03:42:31;;;;;;;3.55;2.00;;;;;;;12.90;96.16;97406.97;5426930;26;20010;-61
2024/05/06 03:45:17;;;;;;;4.40;2.28;;;;;;;13.04;97.01;97438.56;5426973;26;20011;-61
2024/05/06 03:48:03;;;;;;;4.00;2.22;;;;;;;13.09;96.16;97435.63;5427378;26;20008;-60
2024/05/06 03:50:48;;;;;;;2.85;1.90;;;;;;;13.06;96.60;97431.41;5402246;26;20010;-62
2024/05/06 03:53:35;;;;;;;3.28;2.17;;;;;;;13.10;95.81;97432.06;5452265;26;20013;-63
2024/05/06 03:56:21;;;;;;;256.23;111.68;;;;;;;13.03;96.21;97434.22;5427057;26;20071;-61
2024/05/06 03:59:07;;;;;;;16.90;8.98;;;;;;;13.02;96.16;97429.91;5452235;26;20067;-61
2024/05/06 04:01:52;;;;;;;3.42;2.30;;;;;;;12.95;95.95;97423.34;5452200;26;20005;-62
2024/05/06 04:04:39;;;;;;;3.70;2.08;;;;;;;12.84;96.89;97424.00;5426917;26;20075;-62
2024/05/06 04:07:26;;;;;;;2.38;1.83;;;;;;;12.84;96.95;97424.84;5452265;26;20014;-61
2024/05/06 04:10:13;;;;;;;3.20;2.25;;;;;;;12.78;96.80;97412.03;5453509;26;20020;-62
2024/05/06 04:12:59;;;;;;;5.55;2.40;;;;;;;12.70;96.89;97413.47;5452242;26;20009;-62
2024/05/06 04:15:45;;;;;;;5.85;3.13;;;;;;;12.81;97.01;97432.13;5452029;26;20009;-62
2024/05/06 04:18:31;;;;;;;3.97;2.67;;;;;;;12.82;96.83;97432.00;5452239;26;20006;-61
2024/05/06 04:21:17;;;;;;;4.90;2.70;;;;;;;12.94;95.63;97422.47;5426611;26;20072;-63
2024/05/06 04:27:08;;;;;;;5.22;2.70;;;;;;;12.72;95.87;97422.13;5451924;26;20392;-62
2024/05/06 04:29:53;;;;;;;4.07;2.30;;;;;;;12.51;97.17;97432.19;5451714;26;20044;-60
2024/05/06 04:32:39;;;;;;;5.50;2.40;;;;;;;12.62;97.03;97429.75;5451811;26;20005;-61
2024/05/06 04:35:26;;;;;;;3.42;1.95;;;;;;;12.75;95.60;97427.22;5453083;26;20005;-64
2024/05/06 04:38:11;;;;;;;3.50;2.35;;;;;;;12.95;93.69;97449.72;5451637;26;20068;-60
2024/05/06 04:40:58;;;;;;;4.85;2.97;;;;;;;12.80;95.88;97438.31;5452950;26;20453;-60
2024/05/06 04:43:44;;;;;;;4.22;2.58;;;;;;;12.77;96.59;97430.59;5426431;26;20005;-61
2024/05/06 04:46:30;;;;;;;4.25;2.45;;;;;;;12.76;96.93;97435.03;5452461;26;20006;-60
2024/05/06 04:49:16;;;;;;;4.88;2.78;;;;;;;12.97;95.19;97435.47;5452883;26;20068;-61
2024/05/06 04:52:02;;;;;;;5.45;3.00;;;;;;;12.85;94.07;97423.91;5453236;26;20005;-60
2024/05/06 04:54:48;;;;;;;5.32;2.70;;;;;;;12.38;97.41;97416.28;5426338;26;20072;-61
2024/05/06 04:57:34;;;;;;;4.03;2.30;;;;;;;12.68;97.55;97412.72;5426471;26;20006;-60
2024/05/06 05:00:20;;;;;;;4.22;2.28;;;;;;;12.77;97.85;97407.75;5452686;26;20048;-60
2024/05/06 05:03:09;;;;;;;5.88;2.22;;;;;;;13.02;96.21;97414.09;5426372;26;20072;-60
2024/05/06 05:05:55;;;;;;;4.32;2.60;;;;;;;13.01;96.54;97407.97;5425872;26;20011;-60
2024/05/06 05:08:41;;;;;;;6.10;3.25;;;;;;;12.80;96.54;97389.06;5451554;26;20009;-60
2024/05/06 05:11:27;;;;;;;3.63;2.28;;;;;;;13.00;96.11;97387.81;5425923;26;20009;-61
2024/05/06 05:14:13;;;;;;;5.18;2.60;;;;;;;13.12;95.38;97386.22;5426129;26;20500;-61
2024/05/06 05:16:59;;;;;;;6.45;2.50;;;;;;;13.32;94.79;97389.38;5451259;26;20002;-60
2024/05/06 05:19:45;;;;;;;5.43;2.78;;;;;;;12.62;98.26;97380.53;5426032;26;20343;-60
2024/05/06 05:22:31;;;;;;;3.97;2.28;;;;;;;12.47;99.32;97384.94;5452255;26;20035;-60
2024/05/06 05:25:17;;;;;;;6.50;2.28;;;;;;;12.38;100.00;97389.94;5450746;26;20006;-60
2024/05/06 05:28:03;;;;;;;3.35;2.40;;;;;;;12.25;100.00;97361.72;5450621;26;20355;-61
2024/05/06 05:30:50;;;;;;;5.72;2.80;;;;;;;12.34;100.00;97391.94;5425585;26;20021;-62
2024/05/06 05:33:35;;;;;;;4.82;2.45;;;;;;;12.57;100.00;97393.16;5450630;26;20376;-61
2024/05/06 05:36:21;;;;;;;5.00;2.75;;;;;;;12.36;100.00;97368.97;5452001;26;20006;-63
2024/05/06 05:39:08;;;;;;;3.35;2.40;;;;;;;12.90;98.75;97386.72;5450411;26;20355;-60
2024/05/06 05:41:53;;;;;;;3.90;2.60;;;;;;;12.88;97.47;97385.97;5450479;26;20013;-65
2024/05/06 05:44:39;;;;;;;3.67;2.65;;;;;;;12.75;95.96;97364.78;5450587;26;20006;-63
2024/05/06 05:47:25;;;;;;;3.20;2.25;;;;;;;12.81;97.04;97382.03;5450227;26;20067;-66
2024/05/06 05:50:11;;;;;;;3.03;2.22;;;;;;;12.48;99.15;97364.75;5451875;26;20067;-61
2024/05/06 05:52:57;;;;;;;3.60;2.50;;;;;;;12.50;100.00;97396.25;5450131;26;20334;-63
2024/05/06 05:55:43;;;;;;;3.85;2.50;;;;;;;12.51;100.00;97393.53;5450442;26;20002;-61
2024/05/06 05:58:29;;;;;;;3.30;2.42;;;;;;;12.66;100.00;97387.28;5451628;26;20068;-62
2024/05/06 06:01:15;;;;;;;3.80;2.55;;;;;;;12.66;99.85;97392.56;5451622;26;20010;-61
2024/05/06 06:04:02;;;;;;;5.80;3.35;;;;;;;12.65;100.00;97372.44;5426780;26;20009;-61
2024/05/06 06:06:48;;;;;;;6.43;3.20;;;;;;;13.08;98.37;97383.84;5463890;26;20005;-60
2024/05/06 06:09:34;;;;;;;4.43;3.05;;;;;;;13.17;98.02;97370.06;5464422;26;20444;-61
2024/05/06 06:12:20;;;;;;;4.72;3.28;;;;;;;13.04;96.21;97347.13;5491429;26;20009;-62
2024/05/06 06:15:06;;;;;;;5.85;3.53;;;;;;;13.22;96.86;97384.66;5491391;26;20005;-61
2024/05/06 06:17:52;;;;;;;5.60;3.60;;;;;;;13.33;96.06;97383.13;5439068;26;20328;-60
2024/05/06 06:20:38;;;;;;;4.15;3.08;;;;;;;13.48;96.93;97386.59;5440210;26;20123;-60
2024/05/06 06:23:24;;;;;;;9.10;3.70;;;;;;;13.69;96.20;97386.97;5463965;26;20006;-61
2024/05/06 06:26:10;;;;;;;4.75;3.20;;;;;;;13.50;94.94;97359.13;5491264;26;20047;-64
2024/05/06 06:28:56;;;;;;;4.70;3.08;;;;;;;13.75;93.87;97389.16;5463966;26;20005;-61
2024/05/06 06:31:42;;;;;;;4.63;2.83;;;;;;;13.83;92.85;97381.59;5491292;26;20005;-61
2024/05/06 06:34:28;;;;;;;6.65;2.95;;;;;;;13.78;92.23;97387.16;5491118;26;20066;-60
2024/05/06 06:37:15;;;;;;;5.03;2.80;;;;;;;13.58;93.53;97369.19;5464564;26;20004;-60
2024/05/06 06:40:01;;;;;;;4.18;2.92;;;;;;;13.62;94.12;97398.88;5438551;26;20009;-60
2024/05/06 06:42:47;;;;;;;5.03;2.72;;;;;;;13.87;92.46;97396.28;5439155;26;20066;-60
2024/05/06 06:45:33;;;;;;;7.15;2.58;;;;;;;13.86;91.80;97380.56;5438570;26;20066;-61
2024/05/06 06:48:18;;;;;;;5.57;2.42;;;;;;;13.88;91.64;97403.25;5491039;26;20001;-60
2024/05/06 06:51:04;;;;;;;5.95;2.80;;;;;;;14.10;92.57;97397.38;5438698;26;20005;-60
2024/05/06 06:53:50;;;;;;;3.92;2.42;;;;;;;14.26;90.68;97388.38;5464039;26;20063;-60
2024/05/06 06:56:37;;;;;;;5.30;2.70;;;;;;;14.49;90.67;97392.09;5438718;26;20021;-61
2024/05/06 06:59:23;;;;;;;4.72;2.45;;;;;;;14.32;90.40;97406.47;5463438;26;20403;-60
2024/05/06 07:02:09;;;;;;;4.38;2.35;;;;;;;14.38;89.89;97379.66;5463279;26;20009;-65
2024/05/06 07:04:54;;;;;;;4.35;2.58;;;;;;;14.58;89.57;97396.78;5490481;26;20066;-60
2024/05/06 07:07:41;;;;;;;3.20;2.20;;;;;;;14.19;90.42;97398.56;5463188;26;20005;-62
2024/05/06 07:10:28;;;;;;;4.10;2.40;;;;;;;14.18;90.58;97399.50;5438427;26;20002;-61
2024/05/06 07:13:14;;;;;;;4.28;2.55;;;;;;;14.48;88.69;97401.81;5438108;26;20043;-63
2024/05/06 07:16:00;;;;;;;3.50;2.60;;;;;;;14.32;90.37;97407.31;5462896;26;20000;-63
2024/05/06 07:19:06;;;;;;;5.00;2.38;;;;;;;14.11;91.50;97411.44;5469046;26;20005;-64
2024/05/06 07:21:54;;;;;;;4.18;2.70;;;;;;;14.26;90.34;97397.19;5463285;26;20005;-62
2024/05/06 07:24:41;;;;;;;3.88;2.40;;;;;;;14.39;89.65;97402.44;5490595;26;21204;-61
2024/05/06 07:27:27;;;;;;;4.22;2.53;;;;;;;14.64;88.40;97391.06;5463345;26;20514;-62
2024/05/06 07:30:13;;;;;;;5.63;2.58;;;;;;;14.60;88.72;97401.97;5438214;26;20456;-61
2024/05/06 07:32:59;;;;;;;3.30;2.50;;;;;;;14.88;87.96;97392.91;5438020;26;20017;-62
2024/05/06 07:35:45;;;;;;;6.60;2.78;;;;;;;14.90;87.65;97396.28;5490694;26;20406;-62
2024/05/06 07:38:31;;;;;;;5.82;2.60;;;;;;;15.01;87.38;97380.53;5463799;26;20009;-62
2024/05/06 07:41:19;;;;;;;3.40;2.30;;;;;;;15.03;86.53;97391.81;5438548;26;20345;-64
2024/05/06 07:44:05;;;;;;;3.60;2.35;;;;;;;15.14;87.11;97403.44;5437863;26;20341;-61
2024/05/06 07:46:52;;;;;;;4.10;2.60;;;;;;;15.06;86.92;97391.63;5462920;26;20473;-62
2024/05/06 07:49:37;;;;;;;4.65;2.40;;;;;;;15.06;85.99;97394.25;5462960;26;20070;-64
2024/05/06 07:52:24;;;;;;;3.35;2.35;;;;;;;15.33;85.42;97400.31;5437882;26;20005;-61
2024/05/06 07:55:10;;;;;;;4.65;2.17;;;;;;;15.58;85.57;97394.03;5462852;26;20004;-64
2024/05/06 07:57:56;;;;;;;3.05;2.00;;;;;;;15.33;85.65;97401.16;5438086;26;20032;-61
2024/05/06 08:00:42;;;;;;;2.97;1.90;;;;;;;15.15;84.73;97405.09;5462908;26;20395;-63
2024/05/06 08:03:28;;;;;;;4.32;2.08;;;;;;;14.81;85.56;97363.41;5463213;26;20298;-63
2024/05/06 08:06:14;;;;;;;3.28;2.15;;;;;;;15.38;84.75;97401.66;5490479;26;20062;-60
2024/05/06 08:09:00;;;;;;;4.25;2.20;;;;;;;15.35;85.13;97407.16;5438437;26;20285;-63
2024/05/06 08:11:46;;;;;;;2.47;1.63;;;;;;;15.33;84.84;97397.66;5463330;26;20066;-61
2024/05/06 08:14:33;;;;;;;3.05;1.90;;;;;;;15.48;83.56;97396.50;5462977;26;20005;-61
2024/05/06 08:17:19;;;;;;;2.88;1.75;;;;;;;15.13;80.75;97378.75;5437691;26;20510;-60
2024/05/06 08:20:06;;;;;;;2.60;1.92;;;;;;;15.45;81.00;97410.00;5462436;26;20058;-60
2024/05/06 08:22:52;;;;;;;2.10;1.58;;;;;;;15.27;81.54;97393.63;5462682;26;20005;-61
2024/05/06 08:25:42;;;;;;;3.45;1.60;;;;;;;15.36;81.88;97411.50;5438596;26;20373;-62
2024/05/06 08:28:28;;;;;;;2.10;1.70;;;;;;;15.08;83.00;97365.88;5461222;26;20004;-61
2024/05/06 08:31:15;;;;;;;2.78;1.60;;;;;;;15.43;81.82;97394.22;5489790;26;20066;-63
2024/05/06 08:34:02;;;;;;;2.60;1.60;;;;;;;15.54;80.65;97408.47;5462202;26;20456;-60
2024/05/06 08:36:48;;;;;;;3.80;1.90;;;;;;;15.57;81.07;97403.78;5489594;26;20034;-60
2024/05/06 08:39:35;;;;;;;2.83;1.50;;;;;;;15.45;80.12;97389.66;5462891;26;20013;-60
2024/05/06 08:42:43;;;;;;;4.57;1.75;;;;;;;15.67;80.76;97404.81;5467867;26;20034;-63
2024/05/06 08:45:29;;;;;;;6.90;1.73;;;;;;;15.72;80.60;97385.91;5489293;26;20051;-62
2024/05/06 08:48:18;;;;;;;2.28;1.77;;;;;;;16.00;79.99;97405.91;5437181;26;20008;-65
2024/05/06 08:51:11;;;;;;;3.10;1.75;;;;;;;15.94;78.60;97360.50;5462104;26;20429;-65
2024/05/06 08:53:57;;;;;;;1.83;1.50;;;;;;;16.57;78.86;97403.38;5462585;26;20378;-62
2024/05/06 08:56:46;;;;;;;3.33;1.70;;;;;;;16.28;79.02;97409.09;5463271;26;20399;-63
2024/05/06 08:59:36;;;;;;;2.67;1.80;;;;;;;16.60;76.78;97401.31;5462461;26;20008;-61
2024/05/06 09:02:27;;;;;;;3.60;1.70;;;;;;;16.92;77.37;97391.81;5437235;26;20058;-64
2024/05/06 09:05:24;;;;;;;2.00;1.40;;;;;;;16.58;78.51;97402.38;5451106;26;20014;-65
2024/05/06 09:08:14;;;;;;;2.67;1.50;;;;;;;16.27;75.05;97396.84;5426868;26;20495;-64
2024/05/06 09:11:11;;;;;;;3.10;1.70;;;;;;;16.12;76.35;97400.66;5426057;26;20009;-64
2024/05/06 09:13:58;;;;;;;4.78;1.63;;;;;;;16.09;76.06;97396.41;5426300;26;20060;-63
2024/05/06 09:16:46;;;;;;;1.73;1.40;;;;;;;15.83;75.89;97356.00;5451238;26;20005;-65
2024/05/06 09:19:44;;;;;;;2.70;1.60;;;;;;;15.97;77.15;97394.69;5450932;26;20014;-64
2024/05/06 09:22:35;;;;;;;4.20;1.67;;;;;;;16.24;76.51;97386.47;5425919;26;20005;-65
2024/05/06 09:25:21;;;;;;;2.63;1.60;;;;;;;16.31;75.60;97387.66;5450933;26;20045;-65
2024/05/06 09:28:13;;;;;;;5.05;1.70;;;;;;;16.47;75.19;97389.97;5425887;26;20021;-62
2024/05/06 09:30:59;;;;;;;4.15;1.50;;;;;;;16.21;75.32;97355.72;5425583;26;20072;-63
2024/05/06 09:33:47;;;;;;;2.15;1.20;;;;;;;16.20;74.32;97363.81;5450712;26;20342;-64
2024/05/06 09:36:43;;;;;;;1.40;1.30;;;;;;;16.66;76.02;97397.34;5427850;26;20001;-63
2024/05/06 09:39:34;;;;;;;1.77;1.50;;;;;;;16.41;74.61;97396.59;5452137;26;20005;-64
2024/05/06 09:42:23;;;;;;;1.90;1.40;;;;;;;16.90;74.27;97391.09;5454766;26;20507;-65
2024/05/06 09:45:13;;;;;;;2.08;1.48;;;;;;;17.11;72.81;97397.34;5454456;26;20005;-65
2024/05/06 09:48:05;;;;;;;1.65;1.30;;;;;;;16.96;71.84;97396.75;5454290;26;20453;-64
2024/05/06 09:50:52;;;;;;;2.00;1.50;;;;;;;16.76;71.14;97397.47;5454335;26;20057;-60
2024/05/06 09:53:40;;;;;;;2.95;1.70;;;;;;;16.95;71.65;97392.44;5428921;26;20067;-62
2024/05/06 09:56:29;;;;;;;1.85;1.40;;;;;;;17.07;70.72;97395.06;5429131;26;20067;-60
2024/05/06 09:59:18;;;;;;;1.67;1.30;;;;;;;17.14;69.51;97393.59;5429076;26;20005;-61
2024/05/06 10:02:13;;;;;;;4.20;1.50;;;;;;;17.04;69.17;97401.47;5454027;26;20006;-60
2024/05/06 10:04:59;;;;;;;1.30;1.17;;;;;;;17.53;68.91;97394.81;5453977;26;20396;-61
2024/05/06 10:07:46;;;;;;;3.25;1.38;;;;;;;17.44;70.16;97395.59;5454041;26;20026;-60
2024/05/06 10:10:34;;;;;;;4.30;1.30;;;;;;;17.60;70.09;97402.31;5455489;26;20024;-60
2024/05/06 10:13:21;;;;;;;1.42;1.17;;;;;;;17.67;67.70;97398.16;5455354;26;20006;-60
2024/05/06 10:16:07;;;;;;;1.65;1.33;;;;;;;17.50;67.74;97403.03;5453536;26;20077;-61
2024/05/06 10:18:58;;;;;;;2.40;1.48;;;;;;;17.77;68.34;97399.09;5453784;26;20345;-61
2024/05/06 10:21:45;;;;;;;3.08;1.52;;;;;;;17.91;67.09;97398.81;5428735;26;20067;-60
2024/05/06 10:24:31;;;;;;;2.33;1.55;;;;;;;17.63;67.47;97410.00;5455278;26;20010;-60
2024/05/06 10:27:18;;;;;;;1.85;1.40;;;;;;;17.87;70.52;97385.91;5453880;26;20113;-60
2024/05/06 10:30:07;;;;;;;4.95;1.40;;;;;;;18.07;69.65;97411.66;5428428;26;20519;-60
2024/05/06 10:33:08;;;;;;;2.08;1.27;;;;;;;17.53;72.91;97415.22;5432189;26;20453;-62
2024/05/06 10:36:06;;;;;;;1.58;1.30;;;;;;;17.16;74.08;97410.25;5408854;26;20068;-60
2024/05/06 10:38:54;;;;;;;2.85;1.60;;;;;;;17.03;74.83;97407.72;5428278;26;20005;-60
2024/05/06 10:41:44;;;;;;;3.40;1.50;;;;;;;16.94;74.21;97408.47;5453282;26;20009;-62
2024/05/06 10:44:30;;;;;;;1.38;1.20;;;;;;;18.17;70.40;97395.75;5453456;26;20006;-61
2024/05/06 10:47:19;;;;;;;1.80;1.30;;;;;;;20.27;63.52;97387.91;5453257;26;20006;-62
2024/05/06 10:50:06;;;;;;;5.55;1.20;;;;;;;21.31;62.23;97390.47;5428195;26;20006;-66
2024/05/06 10:53:20;;;;;;;1.98;1.10;;;;;;;21.75;61.72;97392.47;5453660;26;20453;-61
2024/05/06 10:56:06;;;;;;;1.52;1.20;;;;;;;21.03;60.63;97395.00;5428222;26;20005;-62
2024/05/06 10:58:57;;;;;;;2.25;1.20;;;;;;;20.64;58.16;97371.97;5453390;26;20005;-60
2024/05/06 11:01:44;;;;;;;2.15;1.30;;;;;;;20.16;62.47;97403.09;5427996;26;20006;-62
2024/05/06 11:04:32;;;;;;;1.35;1.10;;;;;;;20.12;60.62;97400.84;5436648;26;20470;-61
2024/05/06 11:07:21;;;;;;;1.48;1.15;;;;;;;20.51;58.09;97390.97;5463860;26;20058;-61
2024/05/06 11:10:08;;;;;;;4.60;1.20;;;;;;;21.19;58.17;97381.81;5491035;26;20035;-63
2024/05/06 11:13:03;;;;;;;1.65;1.10;;;;;;;20.60;59.09;97383.03;5463799;26;20005;-61
2024/05/06 11:15:52;;;;;;;1.50;1.30;;;;;;;20.90;60.86;97361.47;5463799;26;20023;-60
2024/05/06 11:18:38;;;;;;;1.10;1.00;;;;;;;21.78;60.83;97368.94;5438394;26;20035;-59
2024/05/06 11:21:32;;;;;;;1.40;0.95;;;;;;;21.55;58.14;97379.25;5463475;26;20034;-59
2024/05/06 11:24:18;;;;;;;1.50;1.00;;;;;;;21.39;60.24;97371.00;5490539;26;20030;-60
2024/05/06 11:27:04;;;;;;;2.38;1.30;;;;;;;21.12;60.03;97384.25;5438701;26;20074;-62
2024/05/06 11:29:52;;;;;;;1.00;0.95;;;;;;;21.16;58.70;97373.28;5490769;26;20001;-64
2024/05/06 11:32:38;;;;;;;1.27;1.10;;;;;;;21.49;56.01;97364.66;5438321;26;20070;-61
2024/05/06 11:35:25;;;;;;;1.15;0.90;;;;;;;22.53;56.17;97370.34;5463630;26;20070;-64
2024/05/06 11:38:11;;;;;;;2.22;1.17;;;;;;;24.07;51.51;97362.94;5490530;26;20474;-61
2024/05/06 11:40:57;;;;;;;1.25;1.13;;;;;;;24.07;51.18;97322.72;5463201;26;20004;-66
2024/05/06 11:43:48;;;;;;;1.55;1.10;;;;;;;23.03;52.55;97361.56;5463252;26;20407;-62
2024/05/06 11:46:34;;;;;;;1.88;0.90;;;;;;;22.34;54.43;97339.28;5463550;26;20009;-60
2024/05/06 11:49:20;;;;;;;1.02;0.90;;;;;;;20.65;56.90;97364.81;5462892;26;20005;-62
2024/05/06 11:52:07;;;;;;;1.00;0.90;;;;;;;20.62;57.67;97362.41;5463007;26;20001;-60
2024/05/06 11:54:53;;;;;;;2.72;1.05;;;;;;;20.43;59.20;97350.81;5462983;26;20425;-60
2024/05/06 11:57:39;;;;;;;0.95;0.90;;;;;;;20.21;58.12;97377.81;5462931;26;20370;-62
2024/05/06 12:00:25;;;;;;;1.38;1.20;;;;;;;19.90;59.16;97360.19;5463077;26;20130;-62
2024/05/06 12:03:23;;;;;;;1.15;1.00;;;;;;;19.67;60.67;97367.59;5466250;26;20444;-61
2024/05/06 12:06:09;;;;;;;1.65;1.20;;;;;;;19.16;61.94;97355.34;5451731;26;20068;-60
2024/05/06 12:08:55;;;;;;;1.67;1.40;;;;;;;19.37;63.82;97377.38;5451964;26;20001;-60
2024/05/06 12:11:41;;;;;;;2.00;1.10;;;;;;;18.88;60.26;97373.75;5426783;26;20007;-59
2024/05/06 12:14:28;;;;;;;1.30;1.13;;;;;;;18.51;60.98;97374.28;5453349;26;20060;-66
2024/05/06 12:17:13;;;;;;;3.15;1.20;;;;;;;18.57;61.31;97371.06;5453288;26;20454;-61
2024/05/06 12:20:00;;;;;;;3.50;1.30;;;;;;;18.91;61.71;97359.34;5451580;26;20063;-61
2024/05/06 12:22:46;;;;;;;3.13;1.30;;;;;;;19.29;59.82;97374.59;5453226;26;20385;-60
2024/05/06 12:25:32;;;;;;;1.25;1.00;;;;;;;19.63;60.21;97369.69;5453268;26;20030;-59
2024/05/06 12:28:18;;;;;;;1.70;1.05;;;;;;;19.74;60.45;97365.22;5452743;26;20005;-62
2024/05/06 12:31:04;;;;;;;1.33;1.10;;;;;;;19.87;60.21;97368.47;5451725;26;20446;-62
2024/05/06 12:33:50;;;;;;;3.22;1.20;;;;;;;19.63;60.15;97367.03;5451551;26;20006;-61
2024/05/06 12:36:37;;;;;;;0.90;0.90;;;;;;;19.19;58.78;97361.22;5426556;26;20420;-61
2024/05/06 12:39:25;;;;;;;0.98;0.90;;;;;;;18.80;59.05;97363.78;5452987;26;20005;-64
2024/05/06 12:42:11;;;;;;;1.70;1.10;;;;;;;18.73;60.49;97364.41;5426502;26;20005;-63
2024/05/06 12:44:57;;;;;;;4.00;1.45;;;;;;;18.78;63.20;97367.53;5451350;26;20029;-63
2024/05/06 12:47:44;;;;;;;2.70;1.50;;;;;;;18.80;61.96;97336.28;5451321;26;20014;-64
2024/05/06 12:50:30;;;;;;;0.93;0.90;;;;;;;19.02;60.83;97357.41;5426439;26;20005;-65
2024/05/06 12:53:25;;;;;;;1.85;1.20;;;;;;;18.97;60.19;97362.28;5428471;26;20067;-64
2024/05/06 12:56:12;;;;;;;2.20;1.10;;;;;;;18.71;59.79;97327.31;5426346;26;20027;-60
2024/05/06 12:58:58;;;;;;;1.75;1.08;;;;;;;18.09;61.62;97337.94;5426093;26;20048;-61
2024/05/06 13:01:44;;;;;;;1.08;0.90;;;;;;;18.02;61.04;97347.41;5451081;26;20067;-65
2024/05/06 13:04:32;;;;;;;1.85;1.15;;;;;;;18.23;61.83;97344.75;5409591;26;20005;-60
2024/05/06 13:07:18;;;;;;;1.15;1.02;;;;;;;18.16;62.24;97324.97;5461981;26;20004;-64